sensor_id;sensor_type;location;lat;lon;timestamp;temperature;humidity
26623;DHT22;14254;50.968;5.366;2022-12-24T00:01:22;11.20;99.90
26623;DHT22;14254;50.968;5.366;2022-12-24T00:03:48;11.10;99.90
26623;DHT22;14254;50.968;5.366;2022-12-24T00:06:20;11.10;99.90
26623;DHT22;14254;50.968;5.366;2022-12-24T00:08:46;11.10;99.90
26623;DHT22;14254;50.968;5.366;2022-12-24T00:11:12;11.10;99.90
26623;DHT22;14254;50.968;5.366;2022-12-24T00:13:37;11.10;99.90
26623;DHT22;14254;50.968;5.366;2022-12-24T00:16:03;11.10;99.90
26623;DHT22;14254;50.968;5.366;2022-12-24T00:18:29;11.10;99.90
26623;DHT22;14254;50.968;5.366;2022-12-24T00:20:55;11.10;99.90
26623;DHT22;14254;50.968;5.366;2022-12-24T00:23:20;11.10;99.90
26623;DHT22;14254;50.968;5.366;2022-12-24T00:25:46;11.20;99.90
26623;DHT22;14254;50.968;5.366;2022-12-24T00:28:12;11.10;99.90
26623;DHT22;14254;50.968;5.366;2022-12-24T00:30:40;11.20;99.90
26623;DHT22;14254;50.968;5.366;2022-12-24T00:33:05;11.20;99.90
26623;DHT22;14254;50.968;5.366;2022-12-24T00:35:35;11.30;99.90
26623;DHT22;14254;50.968;5.366;2022-12-24T00:38:02;11.40;99.90
26623;DHT22;14254;50.968;5.366;2022-12-24T00:40:29;11.40;99.90
26623;DHT22;14254;50.968;5.366;2022-12-24T00:42:55;11.50;99.90
26623;DHT22;14254;50.968;5.366;2022-12-24T00:45:21;11.50;99.90
26623;DHT22;14254;50.968;5.366;2022-12-24T00:47:47;11.50;99.90
26623;DHT22;14254;50.968;5.366;2022-12-24T00:50:13;11.40;99.90
26623;DHT22;14254;50.968;5.366;2022-12-24T00:52:39;11.40;99.90
26623;DHT22;14254;50.968;5.366;2022-12-24T00:55:05;11.40;99.90
26623;DHT22;14254;50.968;5.366;2022-12-24T00:57:30;11.40;99.90
26623;DHT22;14254;50.968;5.366;2022-12-24T00:59:56;11.50;99.90
26623;DHT22;14254;50.968;5.366;2022-12-24T01:02:22;11.40;99.90
26623;DHT22;14254;50.968;5.366;2022-12-24T01:04:48;11.40;99.90
26623;DHT22;14254;50.968;5.366;2022-12-24T01:07:32;11.50;99.90
26623;DHT22;14254;50.968;5.366;2022-12-24T01:09:58;11.60;99.90
26623;DHT22;14254;50.968;5.366;2022-12-24T01:12:23;11.60;99.90
26623;DHT22;14254;50.968;5.366;2022-12-24T01:14:49;11.60;99.90
26623;DHT22;14254;50.968;5.366;2022-12-24T01:17:15;11.60;99.90
26623;DHT22;14254;50.968;5.366;2022-12-24T01:19:41;11.60;99.90
26623;DHT22;14254;50.968;5.366;2022-12-24T01:22:07;11.50;99.90
26623;DHT22;14254;50.968;5.366;2022-12-24T01:24:34;11.60;99.90
26623;DHT22;14254;50.968;5.366;2022-12-24T01:26:59;11.60;99.90
26623;DHT22;14254;50.968;5.366;2022-12-24T01:29:25;11.60;99.90
26623;DHT22;14254;50.968;5.366;2022-12-24T01:31:51;11.70;99.90
26623;DHT22;14254;50.968;5.366;2022-12-24T01:34:17;11.70;99.90
26623;DHT22;14254;50.968;5.366;2022-12-24T01:36:42;11.70;99.90
26623;DHT22;14254;50.968;5.366;2022-12-24T01:39:08;11.70;99.90
26623;DHT22;14254;50.968;5.366;2022-12-24T01:41:34;11.70;99.90
26623;DHT22;14254;50.968;5.366;2022-12-24T01:44:23;11.70;99.90
26623;DHT22;14254;50.968;5.366;2022-12-24T01:47:00;11.70;99.90
26623;DHT22;14254;50.968;5.366;2022-12-24T01:49:28;11.80;99.90
26623;DHT22;14254;50.968;5.366;2022-12-24T01:52:00;11.80;99.90
26623;DHT22;14254;50.968;5.366;2022-12-24T01:54:33;11.70;99.90
26623;DHT22;14254;50.968;5.366;2022-12-24T01:57:08;11.70;99.90
26623;DHT22;14254;50.968;5.366;2022-12-24T01:59:36;11.60;99.90
26623;DHT22;14254;50.968;5.366;2022-12-24T02:02:03;11.50;99.90
26623;DHT22;14254;50.968;5.366;2022-12-24T02:07:13;11.30;99.90
26623;DHT22;14254;50.968;5.366;2022-12-24T02:09:39;11.20;99.90
26623;DHT22;14254;50.968;5.366;2022-12-24T02:12:05;11.20;99.90
26623;DHT22;14254;50.968;5.366;2022-12-24T02:14:37;11.20;99.90
26623;DHT22;14254;50.968;5.366;2022-12-24T02:25:57;11.00;99.90
26623;DHT22;14254;50.968;5.366;2022-12-24T02:36:52;10.90;99.90
26623;DHT22;14254;50.968;5.366;2022-12-24T02:39:25;10.90;99.90
26623;DHT22;14254;50.968;5.366;2022-12-24T02:41:55;10.90;99.90
26623;DHT22;14254;50.968;5.366;2022-12-24T02:44:38;10.80;99.90
26623;DHT22;14254;50.968;5.366;2022-12-24T02:47:06;10.80;99.90
26623;DHT22;14254;50.968;5.366;2022-12-24T02:49:34;10.70;99.90
26623;DHT22;14254;50.968;5.366;2022-12-24T02:52:00;10.80;99.90
26623;DHT22;14254;50.968;5.366;2022-12-24T02:54:26;10.70;99.90
26623;DHT22;14254;50.968;5.366;2022-12-24T03:02:40;10.80;99.90
26623;DHT22;14254;50.968;5.366;2022-12-24T03:11:12;10.80;99.90
26623;DHT22;14254;50.968;5.366;2022-12-24T03:13:41;10.70;99.90
26623;DHT22;14254;50.968;5.366;2022-12-24T03:16:10;10.70;99.90
26623;DHT22;14254;50.968;5.366;2022-12-24T03:18:41;10.70;99.90
26623;DHT22;14254;50.968;5.366;2022-12-24T03:21:15;10.70;99.90
26623;DHT22;14254;50.968;5.366;2022-12-24T03:23:42;10.70;99.90
26623;DHT22;14254;50.968;5.366;2022-12-24T03:26:10;10.70;99.90
26623;DHT22;14254;50.968;5.366;2022-12-24T03:28:38;10.70;99.90
26623;DHT22;14254;50.968;5.366;2022-12-24T03:31:06;10.70;99.90
26623;DHT22;14254;50.968;5.366;2022-12-24T03:33:33;10.70;99.90
26623;DHT22;14254;50.968;5.366;2022-12-24T03:35:59;10.70;99.90
26623;DHT22;14254;50.968;5.366;2022-12-24T03:38:25;10.70;99.90
26623;DHT22;14254;50.968;5.366;2022-12-24T03:40:51;10.70;99.90
26623;DHT22;14254;50.968;5.366;2022-12-24T03:43:17;10.60;99.90
26623;DHT22;14254;50.968;5.366;2022-12-24T03:45:42;10.70;99.90
26623;DHT22;14254;50.968;5.366;2022-12-24T03:48:08;10.70;99.90
26623;DHT22;14254;50.968;5.366;2022-12-24T03:50:34;10.60;99.90
26623;DHT22;14254;50.968;5.366;2022-12-24T03:52:59;10.60;99.90
26623;DHT22;14254;50.968;5.366;2022-12-24T03:55:25;10.70;99.90
26623;DHT22;14254;50.968;5.366;2022-12-24T03:57:51;10.70;99.90
26623;DHT22;14254;50.968;5.366;2022-12-24T04:00:17;10.70;99.90
26623;DHT22;14254;50.968;5.366;2022-12-24T04:02:42;10.70;99.90
26623;DHT22;14254;50.968;5.366;2022-12-24T04:05:13;10.70;99.90
26623;DHT22;14254;50.968;5.366;2022-12-24T04:07:39;10.70;99.90
26623;DHT22;14254;50.968;5.366;2022-12-24T04:10:05;10.70;99.90
26623;DHT22;14254;50.968;5.366;2022-12-24T04:12:30;10.70;99.90
26623;DHT22;14254;50.968;5.366;2022-12-24T04:14:56;10.70;99.90
26623;DHT22;14254;50.968;5.366;2022-12-24T04:17:22;10.70;99.90
26623;DHT22;14254;50.968;5.366;2022-12-24T04:19:47;10.70;99.90
26623;DHT22;14254;50.968;5.366;2022-12-24T04:22:13;10.70;99.90
26623;DHT22;14254;50.968;5.366;2022-12-24T04:24:39;10.70;99.90
26623;DHT22;14254;50.968;5.366;2022-12-24T04:27:04;10.80;99.90
26623;DHT22;14254;50.968;5.366;2022-12-24T04:29:30;10.80;99.90
26623;DHT22;14254;50.968;5.366;2022-12-24T04:31:55;10.80;99.90
26623;DHT22;14254;50.968;5.366;2022-12-24T04:34:21;10.90;99.90
26623;DHT22;14254;50.968;5.366;2022-12-24T04:36:47;10.90;99.90
26623;DHT22;14254;50.968;5.366;2022-12-24T04:39:12;11.00;99.90
26623;DHT22;14254;50.968;5.366;2022-12-24T04:41:38;10.90;99.90
26623;DHT22;14254;50.968;5.366;2022-12-24T04:44:04;10.90;99.90
26623;DHT22;14254;50.968;5.366;2022-12-24T04:46:29;10.90;99.90
26623;DHT22;14254;50.968;5.366;2022-12-24T04:48:56;10.90;99.90
26623;DHT22;14254;50.968;5.366;2022-12-24T04:51:22;10.80;99.90
26623;DHT22;14254;50.968;5.366;2022-12-24T04:53:48;10.80;99.90
26623;DHT22;14254;50.968;5.366;2022-12-24T04:56:20;10.80;99.90
26623;DHT22;14254;50.968;5.366;2022-12-24T04:58:46;10.70;99.90
26623;DHT22;14254;50.968;5.366;2022-12-24T05:01:21;10.80;99.90
26623;DHT22;14254;50.968;5.366;2022-12-24T05:03:48;10.80;99.90
26623;DHT22;14254;50.968;5.366;2022-12-24T05:06:17;10.80;99.90
26623;DHT22;14254;50.968;5.366;2022-12-24T05:08:42;10.90;99.90
26623;DHT22;14254;50.968;5.366;2022-12-24T05:11:09;10.80;99.90
26623;DHT22;14254;50.968;5.366;2022-12-24T05:13:38;10.80;99.90
26623;DHT22;14254;50.968;5.366;2022-12-24T05:16:04;10.80;99.90
26623;DHT22;14254;50.968;5.366;2022-12-24T05:18:30;10.90;99.90
26623;DHT22;14254;50.968;5.366;2022-12-24T05:20:55;10.90;99.90
26623;DHT22;14254;50.968;5.366;2022-12-24T05:23:23;10.90;99.90
26623;DHT22;14254;50.968;5.366;2022-12-24T05:26:32;10.90;99.90
26623;DHT22;14254;50.968;5.366;2022-12-24T05:29:00;10.80;99.90
26623;DHT22;14254;50.968;5.366;2022-12-24T05:31:28;10.80;99.90
26623;DHT22;14254;50.968;5.366;2022-12-24T05:33:54;10.80;99.90
26623;DHT22;14254;50.968;5.366;2022-12-24T05:36:20;10.80;99.90
26623;DHT22;14254;50.968;5.366;2022-12-24T05:38:46;10.80;99.90
26623;DHT22;14254;50.968;5.366;2022-12-24T05:41:12;10.90;99.90
26623;DHT22;14254;50.968;5.366;2022-12-24T05:43:38;11.00;99.90
26623;DHT22;14254;50.968;5.366;2022-12-24T05:46:07;11.00;99.90
26623;DHT22;14254;50.968;5.366;2022-12-24T05:48:33;11.10;99.90
26623;DHT22;14254;50.968;5.366;2022-12-24T05:51:03;11.10;99.90
26623;DHT22;14254;50.968;5.366;2022-12-24T05:53:29;11.10;99.90
26623;DHT22;14254;50.968;5.366;2022-12-24T05:56:02;11.10;99.90
26623;DHT22;14254;50.968;5.366;2022-12-24T05:58:27;11.10;99.90
26623;DHT22;14254;50.968;5.366;2022-12-24T06:00:53;11.20;99.90
26623;DHT22;14254;50.968;5.366;2022-12-24T06:03:19;11.20;99.90
26623;DHT22;14254;50.968;5.366;2022-12-24T06:05:44;11.30;99.90
26623;DHT22;14254;50.968;5.366;2022-12-24T06:08:10;11.30;99.90
26623;DHT22;14254;50.968;5.366;2022-12-24T06:10:36;11.30;99.90
26623;DHT22;14254;50.968;5.366;2022-12-24T06:13:01;11.20;99.90
26623;DHT22;14254;50.968;5.366;2022-12-24T06:15:27;11.20;99.90
26623;DHT22;14254;50.968;5.366;2022-12-24T06:17:53;11.30;99.90
26623;DHT22;14254;50.968;5.366;2022-12-24T06:20:18;11.20;99.90
26623;DHT22;14254;50.968;5.366;2022-12-24T06:22:44;11.20;99.90
26623;DHT22;14254;50.968;5.366;2022-12-24T06:25:10;11.20;99.90
26623;DHT22;14254;50.968;5.366;2022-12-24T06:27:35;11.10;99.90
26623;DHT22;14254;50.968;5.366;2022-12-24T06:30:01;11.10;99.90
26623;DHT22;14254;50.968;5.366;2022-12-24T06:32:26;11.10;99.90
26623;DHT22;14254;50.968;5.366;2022-12-24T06:34:52;11.20;99.90
26623;DHT22;14254;50.968;5.366;2022-12-24T06:37:18;11.30;99.90
26623;DHT22;14254;50.968;5.366;2022-12-24T06:39:44;11.30;99.90
26623;DHT22;14254;50.968;5.366;2022-12-24T06:42:11;11.40;99.90
26623;DHT22;14254;50.968;5.366;2022-12-24T06:44:37;11.20;99.90
26623;DHT22;14254;50.968;5.366;2022-12-24T06:47:03;11.10;99.90
26623;DHT22;14254;50.968;5.366;2022-12-24T06:49:29;11.10;99.90
26623;DHT22;14254;50.968;5.366;2022-12-24T06:51:54;11.10;99.90
26623;DHT22;14254;50.968;5.366;2022-12-24T06:54:20;11.20;99.90
26623;DHT22;14254;50.968;5.366;2022-12-24T06:56:45;11.20;99.90
26623;DHT22;14254;50.968;5.366;2022-12-24T06:59:11;11.30;99.90
26623;DHT22;14254;50.968;5.366;2022-12-24T07:01:37;11.20;99.90
26623;DHT22;14254;50.968;5.366;2022-12-24T07:04:02;11.10;99.90
26623;DHT22;14254;50.968;5.366;2022-12-24T07:06:29;11.10;99.90
26623;DHT22;14254;50.968;5.366;2022-12-24T07:08:54;11.00;99.90
26623;DHT22;14254;50.968;5.366;2022-12-24T07:11:22;11.00;99.90
26623;DHT22;14254;50.968;5.366;2022-12-24T07:13:48;10.90;99.90
26623;DHT22;14254;50.968;5.366;2022-12-24T07:16:14;10.80;99.90
26623;DHT22;14254;50.968;5.366;2022-12-24T07:18:39;10.70;99.90
26623;DHT22;14254;50.968;5.366;2022-12-24T07:21:05;10.70;99.90
26623;DHT22;14254;50.968;5.366;2022-12-24T07:23:32;10.70;99.90
26623;DHT22;14254;50.968;5.366;2022-12-24T07:26:03;10.70;99.90
26623;DHT22;14254;50.968;5.366;2022-12-24T07:28:29;10.70;99.90
26623;DHT22;14254;50.968;5.366;2022-12-24T07:30:56;10.60;99.90
26623;DHT22;14254;50.968;5.366;2022-12-24T07:33:22;10.70;99.90
26623;DHT22;14254;50.968;5.366;2022-12-24T07:35:48;10.60;99.90
26623;DHT22;14254;50.968;5.366;2022-12-24T07:38:14;10.60;99.90
26623;DHT22;14254;50.968;5.366;2022-12-24T07:40:39;10.50;99.90
26623;DHT22;14254;50.968;5.366;2022-12-24T07:43:05;10.50;99.90
26623;DHT22;14254;50.968;5.366;2022-12-24T07:45:31;10.50;99.90
26623;DHT22;14254;50.968;5.366;2022-12-24T07:47:56;10.60;99.90
26623;DHT22;14254;50.968;5.366;2022-12-24T07:50:22;10.50;99.90
26623;DHT22;14254;50.968;5.366;2022-12-24T07:52:48;10.50;99.90
26623;DHT22;14254;50.968;5.366;2022-12-24T07:55:13;10.50;99.90
26623;DHT22;14254;50.968;5.366;2022-12-24T07:57:39;10.50;99.90
26623;DHT22;14254;50.968;5.366;2022-12-24T08:00:05;10.40;99.90
26623;DHT22;14254;50.968;5.366;2022-12-24T08:02:31;10.50;99.90
26623;DHT22;14254;50.968;5.366;2022-12-24T08:04:57;10.50;99.90
26623;DHT22;14254;50.968;5.366;2022-12-24T08:07:22;10.60;99.90
26623;DHT22;14254;50.968;5.366;2022-12-24T08:09:48;10.80;99.90
26623;DHT22;14254;50.968;5.366;2022-12-24T08:12:14;10.80;99.90
26623;DHT22;14254;50.968;5.366;2022-12-24T08:14:39;10.80;99.90
26623;DHT22;14254;50.968;5.366;2022-12-24T08:17:05;10.70;99.90
26623;DHT22;14254;50.968;5.366;2022-12-24T08:19:31;10.80;99.90
26623;DHT22;14254;50.968;5.366;2022-12-24T08:21:56;10.90;99.90
26623;DHT22;14254;50.968;5.366;2022-12-24T08:24:22;10.90;99.90
26623;DHT22;14254;50.968;5.366;2022-12-24T08:26:48;11.00;99.90
26623;DHT22;14254;50.968;5.366;2022-12-24T08:29:13;11.00;99.90
26623;DHT22;14254;50.968;5.366;2022-12-24T08:31:39;11.00;99.90
26623;DHT22;14254;50.968;5.366;2022-12-24T08:34:06;11.10;99.90
26623;DHT22;14254;50.968;5.366;2022-12-24T08:36:33;11.20;99.90
26623;DHT22;14254;50.968;5.366;2022-12-24T08:38:59;11.20;99.90
26623;DHT22;14254;50.968;5.366;2022-12-24T08:41:29;11.30;99.90
26623;DHT22;14254;50.968;5.366;2022-12-24T08:43:55;11.40;99.90
26623;DHT22;14254;50.968;5.366;2022-12-24T08:46:20;11.40;99.90
26623;DHT22;14254;50.968;5.366;2022-12-24T08:48:46;11.40;99.90
26623;DHT22;14254;50.968;5.366;2022-12-24T08:51:11;11.40;99.90
26623;DHT22;14254;50.968;5.366;2022-12-24T08:53:38;11.40;99.90
26623;DHT22;14254;50.968;5.366;2022-12-24T08:56:05;11.50;99.90
26623;DHT22;14254;50.968;5.366;2022-12-24T08:58:31;11.40;99.90
26623;DHT22;14254;50.968;5.366;2022-12-24T09:00:57;11.40;99.90
26623;DHT22;14254;50.968;5.366;2022-12-24T09:03:23;11.50;99.90
26623;DHT22;14254;50.968;5.366;2022-12-24T09:05:49;11.50;99.90
26623;DHT22;14254;50.968;5.366;2022-12-24T09:08:15;11.50;99.90
26623;DHT22;14254;50.968;5.366;2022-12-24T09:10:41;11.40;99.90
26623;DHT22;14254;50.968;5.366;2022-12-24T09:13:06;11.40;99.90
26623;DHT22;14254;50.968;5.366;2022-12-24T09:15:32;11.40;99.90
26623;DHT22;14254;50.968;5.366;2022-12-24T09:17:58;11.40;99.90
26623;DHT22;14254;50.968;5.366;2022-12-24T09:20:23;11.40;99.90
26623;DHT22;14254;50.968;5.366;2022-12-24T09:22:49;11.30;99.90
26623;DHT22;14254;50.968;5.366;2022-12-24T09:25:15;11.30;99.90
26623;DHT22;14254;50.968;5.366;2022-12-24T09:27:40;11.40;99.90
26623;DHT22;14254;50.968;5.366;2022-12-24T09:30:07;11.50;99.90
26623;DHT22;14254;50.968;5.366;2022-12-24T09:32:33;11.50;99.90
26623;DHT22;14254;50.968;5.366;2022-12-24T09:34:59;11.50;99.90
26623;DHT22;14254;50.968;5.366;2022-12-24T09:37:25;11.50;99.90
26623;DHT22;14254;50.968;5.366;2022-12-24T09:39:51;11.50;99.90
26623;DHT22;14254;50.968;5.366;2022-12-24T09:42:36;11.60;99.90
26623;DHT22;14254;50.968;5.366;2022-12-24T09:47:51;11.50;99.90
26623;DHT22;14254;50.968;5.366;2022-12-24T09:53:31;11.50;99.90
26623;DHT22;14254;50.968;5.366;2022-12-24T09:56:01;11.70;99.90
26623;DHT22;14254;50.968;5.366;2022-12-24T09:58:38;11.70;99.90
26623;DHT22;14254;50.968;5.366;2022-12-24T10:01:05;11.80;99.90
26623;DHT22;14254;50.968;5.366;2022-12-24T10:03:31;11.80;99.90
26623;DHT22;14254;50.968;5.366;2022-12-24T10:19:53;12.20;99.90
26623;DHT22;14254;50.968;5.366;2022-12-24T10:22:26;12.20;99.90
26623;DHT22;14254;50.968;5.366;2022-12-24T10:25:08;12.30;99.90
26623;DHT22;14254;50.968;5.366;2022-12-24T10:27:38;12.20;99.90
26623;DHT22;14254;50.968;5.366;2022-12-24T10:30:25;12.20;99.90
26623;DHT22;14254;50.968;5.366;2022-12-24T10:32:52;12.30;99.90
26623;DHT22;14254;50.968;5.366;2022-12-24T10:35:22;12.30;99.90
26623;DHT22;14254;50.968;5.366;2022-12-24T10:37:50;12.30;99.90
26623;DHT22;14254;50.968;5.366;2022-12-24T10:42:48;12.20;99.90
26623;DHT22;14254;50.968;5.366;2022-12-24T10:45:17;12.10;99.90
26623;DHT22;14254;50.968;5.366;2022-12-24T10:47:48;12.30;99.90
26623;DHT22;14254;50.968;5.366;2022-12-24T10:50:28;12.40;99.90
26623;DHT22;14254;50.968;5.366;2022-12-24T10:53:03;12.60;99.90
26623;DHT22;14254;50.968;5.366;2022-12-24T10:55:31;12.80;99.90
26623;DHT22;14254;50.968;5.366;2022-12-24T10:58:03;12.90;99.90
26623;DHT22;14254;50.968;5.366;2022-12-24T11:00:30;12.80;99.90
26623;DHT22;14254;50.968;5.366;2022-12-24T11:05:37;12.70;99.90
26623;DHT22;14254;50.968;5.366;2022-12-24T11:08:15;12.70;99.90
26623;DHT22;14254;50.968;5.366;2022-12-24T11:11:00;12.60;99.90
26623;DHT22;14254;50.968;5.366;2022-12-24T11:16:26;12.70;99.90
26623;DHT22;14254;50.968;5.366;2022-12-24T11:18:55;12.60;99.90
26623;DHT22;14254;50.968;5.366;2022-12-24T11:21:30;12.60;99.90
26623;DHT22;14254;50.968;5.366;2022-12-24T11:24:27;12.70;99.90
26623;DHT22;14254;50.968;5.366;2022-12-24T11:26:53;12.80;99.90
26623;DHT22;14254;50.968;5.366;2022-12-24T11:29:25;12.90;99.90
26623;DHT22;14254;50.968;5.366;2022-12-24T11:31:51;13.00;99.90
26623;DHT22;14254;50.968;5.366;2022-12-24T11:34:30;12.80;99.90
26623;DHT22;14254;50.968;5.366;2022-12-24T11:37:17;12.90;99.90
26623;DHT22;14254;50.968;5.366;2022-12-24T11:39:50;12.90;99.90
26623;DHT22;14254;50.968;5.366;2022-12-24T11:42:36;13.00;99.90
26623;DHT22;14254;50.968;5.366;2022-12-24T11:45:23;12.90;99.90
26623;DHT22;14254;50.968;5.366;2022-12-24T11:47:51;13.00;99.90
26623;DHT22;14254;50.968;5.366;2022-12-24T11:50:22;13.10;99.90
26623;DHT22;14254;50.968;5.366;2022-12-24T11:53:19;13.10;99.90
26623;DHT22;14254;50.968;5.366;2022-12-24T11:55:49;13.20;99.90
26623;DHT22;14254;50.968;5.366;2022-12-24T11:58:34;13.20;99.90
26623;DHT22;14254;50.968;5.366;2022-12-24T12:03:59;13.80;99.90
26623;DHT22;14254;50.968;5.366;2022-12-24T12:06:39;14.10;99.90
26623;DHT22;14254;50.968;5.366;2022-12-24T12:09:10;14.80;99.90
26623;DHT22;14254;50.968;5.366;2022-12-24T12:11:38;14.80;99.90
26623;DHT22;14254;50.968;5.366;2022-12-24T12:14:08;14.50;99.90
26623;DHT22;14254;50.968;5.366;2022-12-24T12:16:57;14.50;99.90
26623;DHT22;14254;50.968;5.366;2022-12-24T12:19:31;15.10;99.90
26623;DHT22;14254;50.968;5.366;2022-12-24T12:21:59;16.30;99.90
26623;DHT22;14254;50.968;5.366;2022-12-24T12:24:36;16.50;99.90
26623;DHT22;14254;50.968;5.366;2022-12-24T12:29:35;16.50;99.90
26623;DHT22;14254;50.968;5.366;2022-12-24T12:32:13;17.20;99.90
26623;DHT22;14254;50.968;5.366;2022-12-24T12:34:55;16.90;99.90
26623;DHT22;14254;50.968;5.366;2022-12-24T12:37:37;17.20;99.90
26623;DHT22;14254;50.968;5.366;2022-12-24T12:40:15;16.60;99.90
26623;DHT22;14254;50.968;5.366;2022-12-24T12:42:55;16.50;99.90
26623;DHT22;14254;50.968;5.366;2022-12-24T12:45:52;16.60;99.90
26623;DHT22;14254;50.968;5.366;2022-12-24T12:57:14;16.50;99.90
26623;DHT22;14254;50.968;5.366;2022-12-24T13:00:14;17.00;99.90
26623;DHT22;14254;50.968;5.366;2022-12-24T13:03:22;17.20;99.90
26623;DHT22;14254;50.968;5.366;2022-12-24T13:22:24;15.50;99.90
26623;DHT22;14254;50.968;5.366;2022-12-24T13:24:54;15.40;99.90
26623;DHT22;14254;50.968;5.366;2022-12-24T13:27:23;15.20;99.90
26623;DHT22;14254;50.968;5.366;2022-12-24T13:29:59;14.90;99.90
26623;DHT22;14254;50.968;5.366;2022-12-24T13:37:32;14.30;99.90
26623;DHT22;14254;50.968;5.366;2022-12-24T13:50:53;14.00;99.90
26623;DHT22;14254;50.968;5.366;2022-12-24T13:55:56;14.00;99.90
26623;DHT22;14254;50.968;5.366;2022-12-24T13:58:24;14.00;99.90
26623;DHT22;14254;50.968;5.366;2022-12-24T14:00:56;14.00;99.90
26623;DHT22;14254;50.968;5.366;2022-12-24T14:03:26;13.90;99.90
26623;DHT22;14254;50.968;5.366;2022-12-24T14:06:05;13.90;99.90
26623;DHT22;14254;50.968;5.366;2022-12-24T14:08:39;13.80;99.90
26623;DHT22;14254;50.968;5.366;2022-12-24T14:11:15;13.80;99.90
26623;DHT22;14254;50.968;5.366;2022-12-24T14:18:38;14.50;99.90
26623;DHT22;14254;50.968;5.366;2022-12-24T14:21:06;14.90;99.90
26623;DHT22;14254;50.968;5.366;2022-12-24T14:26:24;15.10;99.90
26623;DHT22;14254;50.968;5.366;2022-12-24T14:29:13;14.90;99.90
26623;DHT22;14254;50.968;5.366;2022-12-24T14:31:52;14.70;99.90
26623;DHT22;14254;50.968;5.366;2022-12-24T14:34:18;14.50;99.90
26623;DHT22;14254;50.968;5.366;2022-12-24T14:36:45;14.30;99.90
26623;DHT22;14254;50.968;5.366;2022-12-24T14:39:24;14.20;99.90
26623;DHT22;14254;50.968;5.366;2022-12-24T14:42:29;14.00;99.90
26623;DHT22;14254;50.968;5.366;2022-12-24T14:50:34;13.70;99.90
26623;DHT22;14254;50.968;5.366;2022-12-24T14:55:53;13.10;99.90
26623;DHT22;14254;50.968;5.366;2022-12-24T14:58:27;13.10;99.90
26623;DHT22;14254;50.968;5.366;2022-12-24T15:01:27;12.90;99.90
26623;DHT22;14254;50.968;5.366;2022-12-24T15:06:37;12.80;99.90
26623;DHT22;14254;50.968;5.366;2022-12-24T15:09:05;12.60;99.90
26623;DHT22;14254;50.968;5.366;2022-12-24T15:11:36;12.50;99.90
26623;DHT22;14254;50.968;5.366;2022-12-24T15:14:03;12.30;99.90
26623;DHT22;14254;50.968;5.366;2022-12-24T15:16:32;12.30;99.90
26623;DHT22;14254;50.968;5.366;2022-12-24T15:19:03;12.10;99.90
26623;DHT22;14254;50.968;5.366;2022-12-24T15:21:35;12.00;99.90
26623;DHT22;14254;50.968;5.366;2022-12-24T15:24:28;12.00;99.90
26623;DHT22;14254;50.968;5.366;2022-12-24T15:26:57;11.90;99.90
26623;DHT22;14254;50.968;5.366;2022-12-24T15:29:29;11.70;99.90
26623;DHT22;14254;50.968;5.366;2022-12-24T15:31:57;11.50;99.90
26623;DHT22;14254;50.968;5.366;2022-12-24T15:34:37;11.30;99.90
26623;DHT22;14254;50.968;5.366;2022-12-24T15:37:23;11.20;99.90
26623;DHT22;14254;50.968;5.366;2022-12-24T15:40:09;11.20;99.90
26623;DHT22;14254;50.968;5.366;2022-12-24T15:42:40;11.10;99.90
26623;DHT22;14254;50.968;5.366;2022-12-24T15:45:15;11.10;99.90
26623;DHT22;14254;50.968;5.366;2022-12-24T15:50:18;11.00;99.90
26623;DHT22;14254;50.968;5.366;2022-12-24T15:52:46;10.90;99.90
26623;DHT22;14254;50.968;5.366;2022-12-24T15:55:35;10.80;99.90
26623;DHT22;14254;50.968;5.366;2022-12-24T15:58:31;10.70;99.90
26623;DHT22;14254;50.968;5.366;2022-12-24T16:03:26;10.50;99.90
26623;DHT22;14254;50.968;5.366;2022-12-24T16:08:28;10.40;99.90
26623;DHT22;14254;50.968;5.366;2022-12-24T16:11:14;10.20;99.90
26623;DHT22;14254;50.968;5.366;2022-12-24T16:13:56;10.20;99.90
26623;DHT22;14254;50.968;5.366;2022-12-24T16:16:35;10.10;99.90
26623;DHT22;14254;50.968;5.366;2022-12-24T16:19:02;10.00;99.90
26623;DHT22;14254;50.968;5.366;2022-12-24T16:21:36;9.90;99.90
26623;DHT22;14254;50.968;5.366;2022-12-24T16:24:23;9.80;99.90
26623;DHT22;14254;50.968;5.366;2022-12-24T16:26:48;9.80;99.90
26623;DHT22;14254;50.968;5.366;2022-12-24T16:29:14;9.60;99.90
26623;DHT22;14254;50.968;5.366;2022-12-24T16:31:46;9.40;99.90
26623;DHT22;14254;50.968;5.366;2022-12-24T16:34:14;9.40;99.90
26623;DHT22;14254;50.968;5.366;2022-12-24T16:36:41;9.50;99.90
26623;DHT22;14254;50.968;5.366;2022-12-24T16:39:31;9.50;99.90
26623;DHT22;14254;50.968;5.366;2022-12-24T16:41:59;9.40;99.90
26623;DHT22;14254;50.968;5.366;2022-12-24T16:44:44;9.30;99.90
26623;DHT22;14254;50.968;5.366;2022-12-24T16:47:13;9.30;99.90
26623;DHT22;14254;50.968;5.366;2022-12-24T16:49:40;9.20;99.90
26623;DHT22;14254;50.968;5.366;2022-12-24T16:52:09;9.30;99.90
26623;DHT22;14254;50.968;5.366;2022-12-24T16:54:38;9.30;99.90
26623;DHT22;14254;50.968;5.366;2022-12-24T16:57:04;9.20;99.90
26623;DHT22;14254;50.968;5.366;2022-12-24T16:59:30;9.20;99.90
26623;DHT22;14254;50.968;5.366;2022-12-24T17:01:57;9.10;99.90
26623;DHT22;14254;50.968;5.366;2022-12-24T17:04:22;9.10;99.90
26623;DHT22;14254;50.968;5.366;2022-12-24T17:06:48;9.20;99.90
26623;DHT22;14254;50.968;5.366;2022-12-24T17:09:15;9.20;99.90
26623;DHT22;14254;50.968;5.366;2022-12-24T17:11:41;9.20;99.90
26623;DHT22;14254;50.968;5.366;2022-12-24T17:14:07;9.30;99.90
26623;DHT22;14254;50.968;5.366;2022-12-24T17:16:35;9.50;99.90
26623;DHT22;14254;50.968;5.366;2022-12-24T17:19:02;9.60;99.90
26623;DHT22;14254;50.968;5.366;2022-12-24T17:21:28;9.70;99.90
26623;DHT22;14254;50.968;5.366;2022-12-24T17:23:53;9.70;99.90
26623;DHT22;14254;50.968;5.366;2022-12-24T17:26:19;9.80;99.90
26623;DHT22;14254;50.968;5.366;2022-12-24T17:28:45;9.80;99.90
26623;DHT22;14254;50.968;5.366;2022-12-24T17:31:13;9.70;99.90
26623;DHT22;14254;50.968;5.366;2022-12-24T17:33:41;9.60;99.90
26623;DHT22;14254;50.968;5.366;2022-12-24T17:36:07;9.50;99.90
26623;DHT22;14254;50.968;5.366;2022-12-24T17:38:34;9.30;99.90
26623;DHT22;14254;50.968;5.366;2022-12-24T17:41:09;9.30;99.90
26623;DHT22;14254;50.968;5.366;2022-12-24T17:43:35;9.20;99.90
26623;DHT22;14254;50.968;5.366;2022-12-24T17:46:06;9.20;99.90
26623;DHT22;14254;50.968;5.366;2022-12-24T17:48:32;9.20;99.90
26623;DHT22;14254;50.968;5.366;2022-12-24T17:51:01;9.30;99.90
26623;DHT22;14254;50.968;5.366;2022-12-24T17:53:27;9.30;99.90
26623;DHT22;14254;50.968;5.366;2022-12-24T17:55:52;9.30;99.90
26623;DHT22;14254;50.968;5.366;2022-12-24T17:58:18;9.30;99.90
26623;DHT22;14254;50.968;5.366;2022-12-24T18:00:44;9.20;99.90
26623;DHT22;14254;50.968;5.366;2022-12-24T18:03:12;9.20;99.90